sensor_id;sensor_type;location;lat;lon;timestamp;temperature;humidity
20740;DHT22;10530;49.968;19.844;2022-11-20T00:03:29;-4.50;99.90
20740;DHT22;10530;49.968;19.844;2022-11-20T00:08:32;-4.50;99.90
20740;DHT22;10530;49.968;19.844;2022-11-20T00:13:35;-4.40;99.90
20740;DHT22;10530;49.968;19.844;2022-11-20T00:18:38;-4.60;99.90
20740;DHT22;10530;49.968;19.844;2022-11-20T00:23:41;-4.50;99.90
20740;DHT22;10530;49.968;19.844;2022-11-20T00:28:58;-4.50;99.90
20740;DHT22;10530;49.968;19.844;2022-11-20T00:34:01;-4.60;99.90
20740;DHT22;10530;49.968;19.844;2022-11-20T00:39:04;-4.80;99.90
20740;DHT22;10530;49.968;19.844;2022-11-20T00:44:07;-4.90;99.90
20740;DHT22;10530;49.968;19.844;2022-11-20T00:49:10;-4.80;99.90
20740;DHT22;10530;49.968;19.844;2022-11-20T00:54:12;-5.10;99.90
20740;DHT22;10530;49.968;19.844;2022-11-20T00:59:15;-5.00;99.90
20740;DHT22;10530;49.968;19.844;2022-11-20T01:04:18;-4.80;99.90
20740;DHT22;10530;49.968;19.844;2022-11-20T01:09:22;-5.00;99.90
20740;DHT22;10530;49.968;19.844;2022-11-20T01:14:25;-5.00;99.90
20740;DHT22;10530;49.968;19.844;2022-11-20T01:19:28;-5.00;99.90
20740;DHT22;10530;49.968;19.844;2022-11-20T01:24:31;-4.90;99.90
20740;DHT22;10530;49.968;19.844;2022-11-20T01:29:33;-5.00;99.90
20740;DHT22;10530;49.968;19.844;2022-11-20T01:34:36;-5.10;99.90
20740;DHT22;10530;49.968;19.844;2022-11-20T01:39:39;-5.00;99.90
20740;DHT22;10530;49.968;19.844;2022-11-20T01:44:52;-5.10;99.90
20740;DHT22;10530;49.968;19.844;2022-11-20T01:50:17;-5.20;99.90
20740;DHT22;10530;49.968;19.844;2022-11-20T01:55:25;-5.20;99.90
20740;DHT22;10530;49.968;19.844;2022-11-20T02:00:28;-5.30;99.90
20740;DHT22;10530;49.968;19.844;2022-11-20T02:05:33;-5.40;99.90
20740;DHT22;10530;49.968;19.844;2022-11-20T02:10:36;-5.30;99.90
20740;DHT22;10530;49.968;19.844;2022-11-20T02:15:40;-5.50;99.90
20740;DHT22;10530;49.968;19.844;2022-11-20T02:20:45;-5.60;99.90
20740;DHT22;10530;49.968;19.844;2022-11-20T02:25:49;-5.70;99.90
20740;DHT22;10530;49.968;19.844;2022-11-20T02:30:52;-5.80;99.90
20740;DHT22;10530;49.968;19.844;2022-11-20T02:35:55;-5.80;99.90
20740;DHT22;10530;49.968;19.844;2022-11-20T02:40:58;-6.00;99.90
20740;DHT22;10530;49.968;19.844;2022-11-20T02:46:00;-6.00;99.90
20740;DHT22;10530;49.968;19.844;2022-11-20T02:51:03;-6.10;99.90
20740;DHT22;10530;49.968;19.844;2022-11-20T02:56:06;-6.10;99.90
20740;DHT22;10530;49.968;19.844;2022-11-20T03:01:09;-6.10;99.90
20740;DHT22;10530;49.968;19.844;2022-11-20T03:06:11;-6.10;99.90
20740;DHT22;10530;49.968;19.844;2022-11-20T03:11:14;-5.90;99.90
20740;DHT22;10530;49.968;19.844;2022-11-20T03:16:20;-5.80;99.90
20740;DHT22;10530;49.968;19.844;2022-11-20T03:21:23;-5.60;99.90
20740;DHT22;10530;49.968;19.844;2022-11-20T03:26:27;-5.60;99.90
20740;DHT22;10530;49.968;19.844;2022-11-20T03:31:33;-5.70;99.90
20740;DHT22;10530;49.968;19.844;2022-11-20T03:36:41;-5.70;99.90
20740;DHT22;10530;49.968;19.844;2022-11-20T03:41:44;-5.90;99.90
20740;DHT22;10530;49.968;19.844;2022-11-20T03:46:47;-5.90;99.90
20740;DHT22;10530;49.968;19.844;2022-11-20T03:51:49;-6.00;99.90
20740;DHT22;10530;49.968;19.844;2022-11-20T03:56:52;-6.00;99.90
20740;DHT22;10530;49.968;19.844;2022-11-20T04:01:55;-6.00;99.90
20740;DHT22;10530;49.968;19.844;2022-11-20T04:06:57;-6.10;99.90
20740;DHT22;10530;49.968;19.844;2022-11-20T04:12:00;-6.10;99.90
20740;DHT22;10530;49.968;19.844;2022-11-20T04:17:03;-6.10;99.90
20740;DHT22;10530;49.968;19.844;2022-11-20T04:22:06;-6.10;99.90
20740;DHT22;10530;49.968;19.844;2022-11-20T04:27:09;-6.30;99.90
20740;DHT22;10530;49.968;19.844;2022-11-20T04:32:11;-6.30;99.90
20740;DHT22;10530;49.968;19.844;2022-11-20T04:37:14;-6.30;99.90
20740;DHT22;10530;49.968;19.844;2022-11-20T04:42:17;-6.50;99.90
20740;DHT22;10530;49.968;19.844;2022-11-20T04:47:31;-6.60;99.90
20740;DHT22;10530;49.968;19.844;2022-11-20T04:52:35;-6.60;99.90
20740;DHT22;10530;49.968;19.844;2022-11-20T04:57:37;-6.70;99.90
20740;DHT22;10530;49.968;19.844;2022-11-20T05:02:40;-6.70;99.90
20740;DHT22;10530;49.968;19.844;2022-11-20T05:07:42;-6.60;99.90
20740;DHT22;10530;49.968;19.844;2022-11-20T05:12:45;-6.60;99.90
20740;DHT22;10530;49.968;19.844;2022-11-20T05:17:49;-6.60;99.90
20740;DHT22;10530;49.968;19.844;2022-11-20T05:22:52;-6.70;99.90
20740;DHT22;10530;49.968;19.844;2022-11-20T05:27:54;-6.70;99.90
20740;DHT22;10530;49.968;19.844;2022-11-20T05:32:57;-6.70;99.90
20740;DHT22;10530;49.968;19.844;2022-11-20T05:38:00;-6.80;99.90
20740;DHT22;10530;49.968;19.844;2022-11-20T05:43:02;-6.80;99.90
20740;DHT22;10530;49.968;19.844;2022-11-20T05:48:05;-6.80;99.90
20740;DHT22;10530;49.968;19.844;2022-11-20T05:53:07;-6.80;99.90
20740;DHT22;10530;49.968;19.844;2022-11-20T05:58:10;-6.80;99.90
20740;DHT22;10530;49.968;19.844;2022-11-20T06:03:13;-6.70;99.90
20740;DHT22;10530;49.968;19.844;2022-11-20T06:08:15;-6.90;99.90
20740;DHT22;10530;49.968;19.844;2022-11-20T06:13:18;-6.80;99.90
20740;DHT22;10530;49.968;19.844;2022-11-20T06:18:20;-6.70;99.90
20740;DHT22;10530;49.968;19.844;2022-11-20T06:23:23;-6.70;99.90
20740;DHT22;10530;49.968;19.844;2022-11-20T06:28:26;-6.80;99.90
20740;DHT22;10530;49.968;19.844;2022-11-20T06:33:29;-6.80;99.90
20740;DHT22;10530;49.968;19.844;2022-11-20T06:38:31;-6.60;99.90
20740;DHT22;10530;49.968;19.844;2022-11-20T06:43:34;-6.60;99.90
20740;DHT22;10530;49.968;19.844;2022-11-20T06:48:37;-6.40;99.90
20740;DHT22;10530;49.968;19.844;2022-11-20T06:53:39;-6.30;99.90
20740;DHT22;10530;49.968;19.844;2022-11-20T06:58:42;-5.80;99.90
20740;DHT22;10530;49.968;19.844;2022-11-20T07:03:45;-5.90;99.90
20740;DHT22;10530;49.968;19.844;2022-11-20T07:08:55;-5.70;99.90
20740;DHT22;10530;49.968;19.844;2022-11-20T07:13:58;-5.60;99.90
20740;DHT22;10530;49.968;19.844;2022-11-20T07:19:00;-5.50;99.90
20740;DHT22;10530;49.968;19.844;2022-11-20T07:24:03;-5.20;99.90
20740;DHT22;10530;49.968;19.844;2022-11-20T07:29:06;-5.10;99.90
20740;DHT22;10530;49.968;19.844;2022-11-20T07:34:09;-5.00;99.90
20740;DHT22;10530;49.968;19.844;2022-11-20T07:39:12;-4.80;99.90
20740;DHT22;10530;49.968;19.844;2022-11-20T07:44:14;-4.70;99.90
20740;DHT22;10530;49.968;19.844;2022-11-20T07:49:17;-4.60;99.90
20740;DHT22;10530;49.968;19.844;2022-11-20T07:54:20;-4.40;99.90
20740;DHT22;10530;49.968;19.844;2022-11-20T07:59:23;-4.30;99.90
20740;DHT22;10530;49.968;19.844;2022-11-20T08:04:26;-4.20;99.90
20740;DHT22;10530;49.968;19.844;2022-11-20T08:09:28;-4.10;99.90
20740;DHT22;10530;49.968;19.844;2022-11-20T08:14:31;-4.00;99.90
20740;DHT22;10530;49.968;19.844;2022-11-20T08:19:34;-3.80;99.90
20740;DHT22;10530;49.968;19.844;2022-11-20T08:24:36;-3.60;99.90
20740;DHT22;10530;49.968;19.844;2022-11-20T08:29:39;-3.40;99.90
20740;DHT22;10530;49.968;19.844;2022-11-20T08:34:42;-3.40;99.90
20740;DHT22;10530;49.968;19.844;2022-11-20T08:39:44;-3.20;99.90
20740;DHT22;10530;49.968;19.844;2022-11-20T08:44:47;-3.00;99.90
20740;DHT22;10530;49.968;19.844;2022-11-20T08:49:50;-2.80;99.90
20740;DHT22;10530;49.968;19.844;2022-11-20T08:54:52;-2.70;99.90
20740;DHT22;10530;49.968;19.844;2022-11-20T08:59:55;-2.50;99.90
20740;DHT22;10530;49.968;19.844;2022-11-20T09:05:07;-2.30;99.90
20740;DHT22;10530;49.968;19.844;2022-11-20T09:10:10;-2.30;99.90
20740;DHT22;10530;49.968;19.844;2022-11-20T09:15:28;-2.30;99.90
20740;DHT22;10530;49.968;19.844;2022-11-20T09:20:31;-2.30;99.90
20740;DHT22;10530;49.968;19.844;2022-11-20T09:25:34;-2.20;99.90
20740;DHT22;10530;49.968;19.844;2022-11-20T09:30:37;-2.20;99.90
20740;DHT22;10530;49.968;19.844;2022-11-20T09:35:40;-2.00;99.90
20740;DHT22;10530;49.968;19.844;2022-11-20T09:40:58;-2.00;99.90
20740;DHT22;10530;49.968;19.844;2022-11-20T09:57:17;-2.00;99.90
20740;DHT22;10530;49.968;19.844;2022-11-20T10:07:31;-1.70;99.90
20740;DHT22;10530;49.968;19.844;2022-11-20T10:18:10;-1.70;99.90
20740;DHT22;10530;49.968;19.844;2022-11-20T10:23:41;-1.80;99.90
20740;DHT22;10530;49.968;19.844;2022-11-20T10:34:18;-1.50;99.90
20740;DHT22;10530;49.968;19.844;2022-11-20T10:39:53;-1.30;99.90
20740;DHT22;10530;49.968;19.844;2022-11-20T10:50:29;-1.30;99.90
20740;DHT22;10530;49.968;19.844;2022-11-20T10:55:40;-1.20;99.90
20740;DHT22;10530;49.968;19.844;2022-11-20T11:00:45;-1.20;99.90
20740;DHT22;10530;49.968;19.844;2022-11-20T11:05:58;-1.10;99.90
20740;DHT22;10530;49.968;19.844;2022-11-20T11:16:22;-0.70;99.90
20740;DHT22;10530;49.968;19.844;2022-11-20T11:21:26;-0.50;99.90
20740;DHT22;10530;49.968;19.844;2022-11-20T11:26:29;-0.30;99.90
20740;DHT22;10530;49.968;19.844;2022-11-20T11:31:34;-0.40;99.90
20740;DHT22;10530;49.968;19.844;2022-11-20T11:36:39;-0.30;99.90
20740;DHT22;10530;49.968;19.844;2022-11-20T11:41:42;-0.30;99.90
20740;DHT22;10530;49.968;19.844;2022-11-20T11:46:55;-0.20;99.90
20740;DHT22;10530;49.968;19.844;2022-11-20T11:52:10;-0.20;99.90
20740;DHT22;10530;49.968;19.844;2022-11-20T11:57:23;0.10;99.90
20740;DHT22;10530;49.968;19.844;2022-11-20T12:18:17;0.60;99.90
20740;DHT22;10530;49.968;19.844;2022-11-20T12:23:33;0.80;99.90
20740;DHT22;10530;49.968;19.844;2022-11-20T12:29:07;0.60;99.90
20740;DHT22;10530;49.968;19.844;2022-11-20T12:34:24;0.60;99.90
20740;DHT22;10530;49.968;19.844;2022-11-20T12:39:36;0.60;99.90
20740;DHT22;10530;49.968;19.844;2022-11-20T12:45:21;0.60;99.90
20740;DHT22;10530;49.968;19.844;2022-11-20T12:50:49;0.60;99.90
20740;DHT22;10530;49.968;19.844;2022-11-20T13:01:58;0.50;99.90
20740;DHT22;10530;49.968;19.844;2022-11-20T13:07:12;0.60;99.90
20740;DHT22;10530;49.968;19.844;2022-11-20T13:17:36;0.60;99.90
20740;DHT22;10530;49.968;19.844;2022-11-20T13:22:47;0.50;99.90
20740;DHT22;10530;49.968;19.844;2022-11-20T13:27:50;0.70;99.90
20740;DHT22;10530;49.968;19.844;2022-11-20T13:33:38;1.30;99.90
20740;DHT22;10530;49.968;19.844;2022-11-20T13:38:47;1.40;99.90
20740;DHT22;10530;49.968;19.844;2022-11-20T13:43:52;1.20;99.90
20740;DHT22;10530;49.968;19.844;2022-11-20T13:49:05;1.00;99.90
20740;DHT22;10530;49.968;19.844;2022-11-20T13:59:46;0.70;99.90
20740;DHT22;10530;49.968;19.844;2022-11-20T14:04:54;0.50;99.90
20740;DHT22;10530;49.968;19.844;2022-11-20T14:09:59;0.40;99.90
20740;DHT22;10530;49.968;19.844;2022-11-20T14:15:02;0.30;99.90
20740;DHT22;10530;49.968;19.844;2022-11-20T14:20:11;0.20;99.90
20740;DHT22;10530;49.968;19.844;2022-11-20T14:30:21;-0.20;99.90
20740;DHT22;10530;49.968;19.844;2022-11-20T14:35:33;-0.40;99.90
20740;DHT22;10530;49.968;19.844;2022-11-20T14:40:37;-0.50;99.90
20740;DHT22;10530;49.968;19.844;2022-11-20T14:45:40;-0.60;99.90
20740;DHT22;10530;49.968;19.844;2022-11-20T14:50:43;-0.80;99.90
20740;DHT22;10530;49.968;19.844;2022-11-20T14:55:58;-1.00;99.90
20740;DHT22;10530;49.968;19.844;2022-11-20T15:01:04;-1.10;99.90
20740;DHT22;10530;49.968;19.844;2022-11-20T15:06:11;-1.30;99.90
20740;DHT22;10530;49.968;19.844;2022-11-20T15:11:19;-1.40;99.90
20740;DHT22;10530;49.968;19.844;2022-11-20T15:16:23;-1.40;99.90
20740;DHT22;10530;49.968;19.844;2022-11-20T15:21:27;-1.70;99.90
20740;DHT22;10530;49.968;19.844;2022-11-20T15:26:30;-1.60;99.90
20740;DHT22;10530;49.968;19.844;2022-11-20T15:31:34;-1.50;99.90
20740;DHT22;10530;49.968;19.844;2022-11-20T15:36:37;-1.60;99.90
20740;DHT22;10530;49.968;19.844;2022-11-20T15:41:39;-1.70;99.90
20740;DHT22;10530;49.968;19.844;2022-11-20T15:46:43;-1.60;99.90
20740;DHT22;10530;49.968;19.844;2022-11-20T15:51:48;-1.60;99.90
20740;DHT22;10530;49.968;19.844;2022-11-20T15:56:52;-1.50;99.90
20740;DHT22;10530;49.968;19.844;2022-11-20T16:01:54;-1.40;99.90
20740;DHT22;10530;49.968;19.844;2022-11-20T16:06:57;-1.30;99.90
20740;DHT22;10530;49.968;19.844;2022-11-20T16:12:00;-1.20;99.90
20740;DHT22;10530;49.968;19.844;2022-11-20T16:17:03;-1.10;99.90
20740;DHT22;10530;49.968;19.844;2022-11-20T16:22:06;-0.90;99.90
20740;DHT22;10530;49.968;19.844;2022-11-20T16:27:08;-0.80;99.90
20740;DHT22;10530;49.968;19.844;2022-11-20T16:32:12;-0.80;99.90
20740;DHT22;10530;49.968;19.844;2022-11-20T16:37:15;-0.80;99.90
20740;DHT22;10530;49.968;19.844;2022-11-20T16:42:18;-0.80;99.90
20740;DHT22;10530;49.968;19.844;2022-11-20T16:47:21;-0.80;99.90
20740;DHT22;10530;49.968;19.844;2022-11-20T16:52:23;-0.70;99.90
20740;DHT22;10530;49.968;19.844;2022-11-20T16:57:30;-0.70;99.90
20740;DHT22;10530;49.968;19.844;2022-11-20T17:02:35;-0.60;99.90
20740;DHT22;10530;49.968;19.844;2022-11-20T17:07:39;-0.60;99.90
20740;DHT22;10530;49.968;19.844;2022-11-20T17:12:42;-0.70;99.90
20740;DHT22;10530;49.968;19.844;2022-11-20T17:17:46;-0.60;99.90
20740;DHT22;10530;49.968;19.844;2022-11-20T17:22:48;-0.60;99.90
20740;DHT22;10530;49.968;19.844;2022-11-20T17:27:51;-0.50;99.90
20740;DHT22;10530;49.968;19.844;2022-11-20T17:32:55;-0.50;99.90
20740;DHT22;10530;49.968;19.844;2022-11-20T17:37:58;-0.50;99.90
20740;DHT22;10530;49.968;19.844;2022-11-20T17:43:01;-0.70;99.90
20740;DHT22;10530;49.968;19.844;2022-11-20T17:48:04;-0.80;99.90
20740;DHT22;10530;49.968;19.844;2022-11-20T17:53:06;-0.70;99.90
20740;DHT22;10530;49.968;19.844;2022-11-20T17:58:09;-0.70;99.90
20740;DHT22;10530;49.968;19.844;2022-11-20T18:03:12;-0.70;99.90
20740;DHT22;10530;49.968;19.844;2022-11-20T18:08:15;-0.70;99.90
20740;DHT22;10530;49.968;19.844;2022-11-20T18:13:17;-0.70;99.90
20740;DHT22;10530;49.968;19.844;2022-11-20T18:18:20;-0.90;99.90
20740;DHT22;10530;49.968;19.844;2022-11-20T18:23:23;-0.90;99.90
20740;DHT22;10530;49.968;19.844;2022-11-20T18:28:28;-0.90;99.90
20740;DHT22;10530;49.968;19.844;2022-11-20T18:33:31;-1.00;99.90
20740;DHT22;10530;49.968;19.844;2022-11-20T18:38:34;-1.10;99.90
20740;DHT22;10530;49.968;19.844;2022-11-20T18:43:36;-1.30;99.90
20740;DHT22;10530;49.968;19.844;2022-11-20T18:48:58;-1.50;99.90
20740;DHT22;10530;49.968;19.844;2022-11-20T18:54:02;-1.60;99.90
20740;DHT22;10530;49.968;19.844;2022-11-20T18:59:06;-1.70;99.90
20740;DHT22;10530;49.968;19.844;2022-11-20T19:04:11;-2.00;99.90
20740;DHT22;10530;49.968;19.844;2022-11-20T19:09:15;-2.10;99.90
20740;DHT22;10530;49.968;19.844;2022-11-20T19:14:17;-2.20;99.90
20740;DHT22;10530;49.968;19.844;2022-11-20T19:19:20;-2.40;99.90
20740;DHT22;10530;49.968;19.844;2022-11-20T19:24:24;-2.50;99.90
20740;DHT22;10530;49.968;19.844;2022-11-20T19:29:28;-2.40;99.90
20740;DHT22;10530;49.968;19.844;2022-11-20T19:34:32;-2.40;99.90
20740;DHT22;10530;49.968;19.844;2022-11-20T19:39:35;-2.50;99.90
20740;DHT22;10530;49.968;19.844;2022-11-20T19:44:38;-2.60;99.90
20740;DHT22;10530;49.968;19.844;2022-11-20T19:49:41;-2.50;99.90
20740;DHT22;10530;49.968;19.844;2022-11-20T19:54:44;-2.50;99.90
20740;DHT22;10530;49.968;19.844;2022-11-20T19:59:47;-2.50;99.90
20740;DHT22;10530;49.968;19.844;2022-11-20T20:04:50;-2.60;99.90
20740;DHT22;10530;49.968;19.844;2022-11-20T20:09:53;-2.70;99.90
20740;DHT22;10530;49.968;19.844;2022-11-20T20:14:55;-2.60;99.90
20740;DHT22;10530;49.968;19.844;2022-11-20T20:19:58;-2.80;99.90
20740;DHT22;10530;49.968;19.844;2022-11-20T20:25:01;-2.60;99.90
20740;DHT22;10530;49.968;19.844;2022-11-20T20:30:05;-2.70;99.90
20740;DHT22;10530;49.968;19.844;2022-11-20T20:35:08;-2.60;99.90
20740;DHT22;10530;49.968;19.844;2022-11-20T20:40:11;-2.50;99.90
20740;DHT22;10530;49.968;19.844;2022-11-20T20:45:16;-2.40;99.90
20740;DHT22;10530;49.968;19.844;2022-11-20T20:50:19;-2.30;99.90
20740;DHT22;10530;49.968;19.844;2022-11-20T20:55:22;-2.20;99.90
20740;DHT22;10530;49.968;19.844;2022-11-20T21:00:24;-2.00;99.90
20740;DHT22;10530;49.968;19.844;2022-11-20T21:05:27;-1.90;99.90
20740;DHT22;10530;49.968;19.844;2022-11-20T21:10:30;-1.80;99.90
20740;DHT22;10530;49.968;19.844;2022-11-20T21:15:33;-1.90;99.90
20740;DHT22;10530;49.968;19.844;2022-11-20T21:20:38;-1.70;99.90
20740;DHT22;10530;49.968;19.844;2022-11-20T21:26:05;-1.50;99.90
20740;DHT22;10530;49.968;19.844;2022-11-20T21:31:09;-1.40;99.90
20740;DHT22;10530;49.968;19.844;2022-11-20T21:36:17;-1.20;99.90
20740;DHT22;10530;49.968;19.844;2022-11-20T21:41:20;-1.10;99.90
20740;DHT22;10530;49.968;19.844;2022-11-20T21:46:23;-1.10;99.90
20740;DHT22;10530;49.968;19.844;2022-11-20T21:51:27;-1.10;99.90
20740;DHT22;10530;49.968;19.844;2022-11-20T21:56:30;-1.10;99.90
20740;DHT22;10530;49.968;19.844;2022-11-20T22:01:33;-1.10;99.90
20740;DHT22;10530;49.968;19.844;2022-11-20T22:06:36;-1.00;99.90
20740;DHT22;10530;49.968;19.844;2022-11-20T22:11:39;-0.90;99.90
20740;DHT22;10530;49.968;19.844;2022-11-20T22:16:42;-1.00;99.90
20740;DHT22;10530;49.968;19.844;2022-11-20T22:21:45;-0.90;99.90
20740;DHT22;10530;49.968;19.844;2022-11-20T22:26:48;-0.90;99.90
20740;DHT22;10530;49.968;19.844;2022-11-20T22:31:51;-0.80;99.90
20740;DHT22;10530;49.968;19.844;2022-11-20T22:36:54;-0.70;99.90
20740;DHT22;10530;49.968;19.844;2022-11-20T22:41:57;-0.70;99.90
20740;DHT22;10530;49.968;19.844;2022-11-20T22:46:59;-0.70;99.90
20740;DHT22;10530;49.968;19.844;2022-11-20T22:52:02;-0.70;99.90
20740;DHT22;10530;49.968;19.844;2022-11-20T22:57:05;-0.60;99.90
20740;DHT22;10530;49.968;19.844;2022-11-20T23:02:07;-0.50;99.90
20740;DHT22;10530;49.968;19.844;2022-11-20T23:07:10;-0.50;99.90
20740;DHT22;10530;49.968;19.844;2022-11-20T23:12:13;-0.50;99.90
20740;DHT22;10530;49.968;19.844;2022-11-20T23:17:15;-0.70;99.90
20740;DHT22;10530;49.968;19.844;2022-11-20T23:22:18;-0.60;99.90
20740;DHT22;10530;49.968;19.844;2022-11-20T23:27:20;-0.60;99.90
20740;DHT22;10530;49.968;19.844;2022-11-20T23:32:29;-0.70;99.90
20740;DHT22;10530;49.968;19.844;2022-11-20T23:37:31;-0.70;99.90
20740;DHT22;10530;49.968;19.844;2022-11-20T23:42:34;-0.80;99.90
20740;DHT22;10530;49.968;19.844;2022-11-20T23:47:37;-1.20;99.90
20740;DHT22;10530;49.968;19.844;2022-11-20T23:52:40;-1.30;99.90
20740;DHT22;10530;49.968;19.844;2022-11-20T23:57:42;-1.30;99.90
